createdAt,value
2018-05-16T00:00:41.160Z,10.37
2018-05-16T00:03:12.097Z,11.63
2018-05-16T00:05:42.376Z,8.90
2018-05-16T00:08:14.392Z,9.10
2018-05-16T00:10:45.292Z,9.83
2018-05-16T00:13:16.509Z,10.80
2018-05-16T00:15:47.816Z,9.43
2018-05-16T00:18:18.614Z,12.60
2018-05-16T00:20:49.781Z,7.30
2018-05-16T00:23:20.203Z,8.20
2018-05-16T00:25:50.420Z,8.93
2018-05-16T00:28:21.767Z,8.47
2018-05-16T00:30:52.568Z,8.90
2018-05-16T00:33:23.570Z,11.47
2018-05-16T00:35:53.807Z,9.47
2018-05-16T00:38:23.951Z,9.33
2018-05-16T00:40:54.334Z,11.53
2018-05-16T00:43:24.696Z,10.13
2018-05-16T00:45:55.611Z,14.40
2018-05-16T00:49:44.956Z,9.30
2018-05-16T00:52:15.405Z,9.53
2018-05-16T00:54:45.547Z,10.70
2018-05-16T00:57:15.739Z,8.00
2018-05-16T00:59:46.264Z,9.93
2018-05-16T01:02:16.899Z,9.30
2018-05-16T01:04:47.256Z,9.30
2018-05-16T01:07:17.435Z,8.03
2018-05-16T01:09:48.736Z,11.43
2018-05-16T01:12:19.247Z,10.80
2018-05-16T01:14:49.413Z,9.57
2018-05-16T01:17:20.527Z,10.07
2018-05-16T01:19:51.331Z,10.43
2018-05-16T01:22:21.407Z,8.87
2018-05-16T01:24:51.522Z,13.17
2018-05-16T01:27:22.663Z,11.53
2018-05-16T01:29:53.743Z,9.13
2018-05-16T01:32:24.356Z,9.70
2018-05-16T01:34:54.884Z,11.30
2018-05-16T01:37:25.748Z,9.23
2018-05-16T01:39:55.915Z,10.13
2018-05-16T01:42:25.899Z,13.50
2018-05-16T01:44:56.613Z,11.20
2018-05-16T01:47:26.689Z,11.67
2018-05-16T01:49:57.297Z,10.00
2018-05-16T01:52:29.071Z,9.70
2018-05-16T01:54:59.920Z,10.83
2018-05-16T01:57:30.345Z,10.23
2018-05-16T02:00:01.859Z,10.30
2018-05-16T02:02:32.408Z,11.57
2018-05-16T02:05:02.747Z,9.97
2018-05-16T02:07:33.801Z,10.80
2018-05-16T02:10:04.240Z,10.40
2018-05-16T02:12:34.610Z,10.33
2018-05-16T02:15:05.232Z,10.07
2018-05-16T02:17:35.276Z,10.27
2018-05-16T02:20:05.790Z,10.47
2018-05-16T02:22:36.116Z,10.27
2018-05-16T02:25:06.426Z,10.37
2018-05-16T02:27:37.985Z,10.60
2018-05-16T02:30:08.297Z,10.53
2018-05-16T02:32:38.381Z,10.07
2018-05-16T02:35:08.574Z,10.57
2018-05-16T02:37:39.847Z,11.43
2018-05-16T02:40:10.772Z,11.50
2018-05-16T02:42:42.273Z,12.23
2018-05-16T02:45:12.650Z,10.87
2018-05-16T02:47:42.845Z,14.63
2018-05-16T02:50:14.295Z,13.23
2018-05-16T02:52:45.436Z,12.73
2018-05-16T02:55:16.336Z,13.13
2018-05-16T02:57:46.758Z,14.33
2018-05-16T03:00:16.859Z,11.90
2018-05-16T03:02:49.223Z,13.33
2018-05-16T03:05:19.497Z,10.97
2018-05-16T03:07:50.756Z,12.07
2018-05-16T03:10:21.229Z,11.37
2018-05-16T03:12:51.610Z,13.37
2018-05-16T03:15:21.740Z,10.90
2018-05-16T03:17:52.331Z,11.10
2018-05-16T03:20:22.746Z,14.03
2018-05-16T03:22:53.363Z,10.80
2018-05-16T03:25:23.816Z,14.40
2018-05-16T03:27:55.952Z,10.90
2018-05-16T03:30:26.442Z,12.20
2018-05-16T03:32:56.541Z,11.57
2018-05-16T03:35:27.912Z,10.83
2018-05-16T03:37:57.999Z,12.07
2018-05-16T03:40:29.093Z,11.30
2018-05-16T03:42:59.655Z,12.63
2018-05-16T03:45:30.564Z,13.43
2018-05-16T03:48:00.666Z,10.73
2018-05-16T03:50:30.716Z,10.43
2018-05-16T03:53:01.131Z,18.77
2018-05-16T03:55:31.385Z,14.43
2018-05-16T04:03:16.623Z,11.93
2018-05-16T04:05:46.880Z,10.07
2018-05-16T04:08:16.946Z,10.17
2018-05-16T04:10:47.635Z,16.20
2018-05-16T04:13:17.708Z,11.53
2018-05-16T04:15:48.567Z,10.70
2018-05-16T04:18:18.962Z,15.17
2018-05-16T04:20:50.088Z,12.80
2018-05-16T04:23:20.148Z,10.73
2018-05-16T04:25:50.251Z,12.50
2018-05-16T04:28:21.624Z,12.07
2018-05-16T04:30:52.012Z,13.00
2018-05-16T04:33:22.250Z,10.33
2018-05-16T04:35:52.584Z,14.23
2018-05-16T04:38:22.977Z,10.07
2018-05-16T04:40:53.239Z,14.80
2018-05-16T04:43:23.527Z,12.30
2018-05-16T04:45:54.657Z,11.97
2018-05-16T04:48:25.111Z,13.97
2018-05-16T04:50:55.953Z,14.73
2018-05-16T04:53:26.764Z,18.90
2018-05-16T04:55:57.125Z,14.87
2018-05-16T04:58:27.191Z,11.77
2018-05-16T05:00:57.308Z,10.53
2018-05-16T05:03:27.400Z,10.30
2018-05-16T05:05:58.022Z,18.47
2018-05-16T05:08:28.157Z,11.63
2018-05-16T05:10:58.519Z,11.93
2018-05-16T05:13:29.688Z,16.00
2018-05-16T05:15:59.828Z,12.97
2018-05-16T05:18:29.983Z,12.27
2018-05-16T05:21:00.068Z,13.20
2018-05-16T05:23:30.485Z,15.43
2018-05-16T05:26:00.604Z,13.43
2018-05-16T05:28:30.722Z,12.07
2018-05-16T05:31:01.092Z,13.47
2018-05-16T05:33:31.162Z,12.77
2018-05-16T05:36:01.384Z,12.53
2018-05-16T05:38:31.492Z,11.63
2018-05-16T05:41:02.267Z,12.57
2018-05-16T05:43:32.340Z,10.67
2018-05-16T05:46:03.277Z,14.30
2018-05-16T05:48:34.628Z,13.07
2018-05-16T05:51:05.789Z,12.87
2018-05-16T05:53:35.868Z,10.40
2018-05-16T05:56:07.613Z,11.90
2018-05-16T05:58:37.688Z,11.30
2018-05-16T06:01:07.781Z,16.27
2018-05-16T06:03:39.004Z,13.67
2018-05-16T06:06:09.272Z,16.63
2018-05-16T06:08:39.397Z,15.53
2018-05-16T06:11:10.036Z,16.37
2018-05-16T06:13:41.229Z,14.87
2018-05-16T06:16:13.470Z,13.23
2018-05-16T06:18:43.576Z,12.77
2018-05-16T06:21:13.685Z,10.63
2018-05-16T06:23:44.105Z,13.10
2018-05-16T06:26:37.791Z,12.30
2018-05-16T06:29:11.952Z,16.07
2018-05-16T06:31:43.175Z,19.40
2018-05-16T06:34:13.311Z,13.87
2018-05-16T06:36:44.516Z,13.67
2018-05-16T06:39:14.760Z,14.30
2018-05-16T06:41:45.922Z,11.83
2018-05-16T06:44:16.924Z,11.87
2018-05-16T06:46:47.106Z,14.77
2018-05-16T06:49:17.439Z,10.27
2018-05-16T06:51:47.994Z,10.60
2018-05-16T06:54:18.649Z,10.50
2018-05-16T06:56:49.381Z,10.70
2018-05-16T06:59:25.256Z,13.00
2018-05-16T07:01:55.450Z,11.00
2018-05-16T07:04:25.977Z,10.87
2018-05-16T07:06:56.208Z,14.63
2018-05-16T07:09:26.286Z,12.47
2018-05-16T07:11:56.604Z,13.03
2018-05-16T07:14:26.724Z,10.33
2018-05-16T07:16:56.916Z,8.80
2018-05-16T07:19:27.478Z,11.90
2018-05-16T07:21:57.601Z,10.07
2018-05-16T07:24:27.957Z,14.63
2018-05-16T07:26:58.336Z,12.30
2018-05-16T07:29:28.672Z,13.03
2018-05-16T07:31:58.787Z,11.50
2018-05-16T07:34:29.307Z,13.43
2018-05-16T07:36:59.991Z,10.77
2018-05-16T07:39:31.289Z,12.27
2018-05-16T07:42:01.912Z,12.43
2018-05-16T07:44:32.053Z,12.07
2018-05-16T07:47:02.492Z,18.13
2018-05-16T07:49:32.573Z,10.77
2018-05-16T07:52:03.048Z,9.83
2018-05-16T07:54:41.668Z,13.63
2018-05-16T07:57:12.689Z,15.87
2018-05-16T07:59:44.175Z,18.33
2018-05-16T08:02:14.250Z,19.53
2018-05-16T08:04:53.528Z,15.53
2018-05-16T08:07:24.916Z,17.80
2018-05-16T08:09:55.015Z,19.57
2018-05-16T08:12:25.941Z,19.60
2018-05-16T08:14:57.120Z,13.73
2018-05-16T08:17:28.023Z,22.30
2018-05-16T08:19:58.146Z,20.13
2018-05-16T08:22:29.365Z,17.70
2018-05-16T08:24:59.409Z,20.23
2018-05-16T08:27:30.276Z,22.53
2018-05-16T08:30:01.004Z,24.87
2018-05-16T08:32:32.100Z,17.37
2018-05-16T08:35:02.428Z,13.67
2018-05-16T08:37:32.850Z,11.40
2018-05-16T08:40:02.940Z,9.77
2018-05-16T08:42:33.002Z,12.83
2018-05-16T08:45:03.427Z,13.63
2018-05-16T08:47:33.503Z,10.67
2018-05-16T08:50:03.778Z,10.53
2018-05-16T08:52:34.911Z,12.00
2018-05-16T08:55:05.870Z,7.80
2018-05-16T08:57:36.025Z,10.73
2018-05-16T09:00:07.104Z,14.23
2018-05-16T09:02:37.823Z,9.53
2018-05-16T09:05:07.949Z,8.17
2018-05-16T09:07:39.072Z,13.00
2018-05-16T09:10:09.193Z,12.73
2018-05-16T09:12:39.297Z,9.13
2018-05-16T09:15:10.771Z,9.80
2018-05-16T09:17:40.944Z,8.93
2018-05-16T09:20:11.689Z,11.77
2018-05-16T09:22:41.761Z,10.07
2018-05-16T09:25:11.932Z,11.73
2018-05-16T09:27:42.328Z,9.67
2018-05-16T09:30:13.419Z,10.63
2018-05-16T09:32:43.556Z,11.67
2018-05-16T09:35:13.967Z,11.10
2018-05-16T09:37:44.122Z,10.93
2018-05-16T09:40:15.039Z,10.33
2018-05-16T09:42:46.251Z,12.63
2018-05-16T09:45:16.406Z,9.77
2018-05-16T09:47:46.722Z,10.20
2018-05-16T09:50:17.083Z,12.87
2018-05-16T09:52:47.887Z,18.33
2018-05-16T09:55:17.968Z,11.17
2018-05-16T09:57:48.364Z,9.73
2018-05-16T10:00:23.718Z,11.10
2018-05-16T10:02:54.911Z,14.17
2018-05-16T10:05:25.036Z,8.13
2018-05-16T10:07:56.015Z,8.90
2018-05-16T10:10:27.143Z,10.73
2018-05-16T10:13:23.807Z,9.37
2018-05-16T10:15:54.171Z,11.13
2018-05-16T10:18:24.564Z,7.77
2018-05-16T10:20:54.632Z,8.53
2018-05-16T10:23:25.224Z,8.20
2018-05-16T10:25:55.361Z,7.13
2018-05-16T10:28:25.456Z,6.83
2018-05-16T10:30:56.087Z,11.43
2018-05-16T10:33:26.208Z,9.90
2018-05-16T10:35:56.346Z,12.37
2018-05-16T10:38:26.736Z,14.77
2018-05-16T10:40:56.811Z,13.80
2018-05-16T10:43:27.083Z,10.13
2018-05-16T10:45:57.428Z,8.87
2018-05-16T10:48:27.760Z,10.03
2018-05-16T10:50:57.860Z,8.47
2018-05-16T10:53:28.432Z,8.80
2018-05-16T10:55:58.793Z,6.30
2018-05-16T10:58:29.804Z,7.40
2018-05-16T11:01:00.232Z,5.20
2018-05-16T11:03:30.583Z,5.43
2018-05-16T11:06:01.484Z,9.10
2018-05-16T11:08:32.700Z,6.77
2018-05-16T11:11:02.908Z,6.03
2018-05-16T11:13:34.428Z,10.93
2018-05-16T11:16:04.884Z,8.50
2018-05-16T11:18:35.236Z,7.47
2018-05-16T11:21:05.327Z,7.43
2018-05-16T11:23:35.701Z,6.57
2018-05-16T11:26:06.670Z,6.73
2018-05-16T11:28:36.844Z,7.07
2018-05-16T11:31:08.348Z,7.50
2018-05-16T11:33:38.488Z,6.27
2018-05-16T11:36:08.635Z,7.53
2018-05-16T11:38:39.037Z,6.03
2018-05-16T11:41:09.820Z,7.70
2018-05-16T11:43:40.002Z,12.00
2018-05-16T11:46:11.780Z,9.20
2018-05-16T11:48:42.267Z,8.23
2018-05-16T11:51:12.403Z,7.50
2018-05-16T11:53:43.083Z,9.83
2018-05-16T11:56:13.414Z,7.50
2018-05-16T11:58:44.471Z,4.77
2018-05-16T12:01:15.247Z,4.93
2018-05-16T12:03:45.450Z,7.60
2018-05-16T12:06:15.595Z,7.87
2018-05-16T12:08:46.122Z,8.40
2018-05-16T12:11:16.337Z,5.30
2018-05-16T12:13:47.678Z,6.50
2018-05-16T12:16:18.116Z,6.23
2018-05-16T12:18:48.204Z,5.27
2018-05-16T12:21:19.308Z,6.33
2018-05-16T12:23:50.353Z,6.53
2018-05-16T12:26:20.441Z,7.23
2018-05-16T12:28:50.640Z,9.37
2018-05-16T12:31:21.049Z,5.87
2018-05-16T12:33:51.157Z,8.00
2018-05-16T12:36:21.971Z,6.27
2018-05-16T12:38:52.446Z,8.33
2018-05-16T12:41:23.462Z,5.37
2018-05-16T12:43:54.319Z,8.37
2018-05-16T12:46:25.247Z,5.83
2018-05-16T12:48:56.653Z,5.93
2018-05-16T12:51:26.782Z,8.40
2018-05-16T12:53:56.839Z,6.30
2018-05-16T12:56:27.226Z,4.87
2018-05-16T12:58:57.918Z,10.13
2018-05-16T13:01:38.745Z,7.27
2018-05-16T13:04:10.251Z,6.10
2018-05-16T13:06:40.321Z,7.67
2018-05-16T13:09:10.603Z,7.10
2018-05-16T13:11:40.980Z,6.83
2018-05-16T13:14:11.258Z,6.20
2018-05-16T13:16:41.638Z,10.20
2018-05-16T13:19:12.711Z,8.10
2018-05-16T13:21:42.998Z,7.10
2018-05-16T13:24:13.525Z,7.47
2018-05-16T13:26:44.033Z,9.77
2018-05-16T13:29:14.142Z,6.03
2018-05-16T13:31:44.611Z,6.97
2018-05-16T13:34:15.083Z,7.13
2018-05-16T13:36:45.291Z,11.70
2018-05-16T13:39:15.672Z,10.70
2018-05-16T13:41:46.531Z,6.97
2018-05-16T13:44:16.696Z,8.03
2018-05-16T13:46:47.162Z,12.40
2018-05-16T13:49:17.681Z,5.37
2018-05-16T13:51:48.552Z,6.07
2018-05-16T13:54:18.929Z,6.50
2018-05-16T13:56:49.816Z,6.23
2018-05-16T14:00:22.522Z,6.23
2018-05-16T14:02:52.908Z,7.13
2018-05-16T14:05:23.779Z,5.40
2018-05-16T14:07:54.241Z,9.07
2018-05-16T14:10:27.090Z,7.20
2018-05-16T14:12:57.317Z,6.07
2018-05-16T14:15:27.485Z,5.63
2018-05-16T14:17:58.671Z,7.33
2018-05-16T14:20:28.719Z,6.63
2018-05-16T14:22:58.846Z,9.60
2018-05-16T14:25:29.643Z,6.60
2018-05-16T14:27:59.792Z,6.23
2018-05-16T14:30:31.044Z,6.97
2018-05-16T14:33:01.148Z,8.60
2018-05-16T14:35:31.285Z,7.40
2018-05-16T14:38:01.936Z,4.83
2018-05-16T14:40:32.883Z,5.73
2018-05-16T14:43:04.259Z,9.03
2018-05-16T14:45:34.628Z,12.50
2018-05-16T14:48:04.848Z,6.17
2018-05-16T14:50:35.007Z,5.00
2018-05-16T14:53:05.413Z,5.60
2018-05-16T14:55:35.636Z,5.53
2018-05-16T14:58:05.748Z,7.53
2018-05-16T15:00:36.130Z,7.23
2018-05-16T15:03:07.211Z,10.93
2018-05-16T15:05:38.193Z,5.20
2018-05-16T15:08:08.741Z,7.33
2018-05-16T15:10:38.791Z,9.13
2018-05-16T15:13:08.896Z,9.10
2018-05-16T15:15:40.115Z,6.43
2018-05-16T15:18:14.290Z,6.77
2018-05-16T15:20:46.318Z,8.10
2018-05-16T15:23:17.284Z,6.60
2018-05-16T15:25:47.839Z,8.67
2018-05-16T15:28:19.156Z,6.23
2018-05-16T15:30:52.463Z,4.93
2018-05-16T15:33:23.695Z,7.50
2018-05-16T15:35:54.428Z,8.23
2018-05-16T15:41:09.929Z,7.00
2018-05-16T15:43:41.496Z,6.53
2018-05-16T15:46:12.811Z,11.37
2018-05-16T15:51:48.175Z,8.37
2018-05-16T15:54:19.522Z,5.00
2018-05-16T15:56:50.434Z,5.47
2018-05-16T15:59:20.923Z,7.50
2018-05-16T16:01:52.318Z,7.60
2018-05-16T16:04:22.673Z,9.20
2018-05-16T16:06:52.795Z,10.03
2018-05-16T16:09:23.230Z,7.60
2018-05-16T16:12:08.037Z,6.37
2018-05-16T16:14:38.803Z,10.47
2018-05-16T16:17:08.924Z,8.67
2018-05-16T16:19:39.088Z,7.07
2018-05-16T16:22:09.700Z,9.43
2018-05-16T16:24:39.881Z,10.47
2018-05-16T16:27:09.984Z,4.03
2018-05-16T16:29:40.393Z,6.33
2018-05-16T16:32:11.654Z,6.17
2018-05-16T16:34:41.857Z,8.83
2018-05-16T16:37:13.197Z,5.37
2018-05-16T16:39:44.017Z,5.57
2018-05-16T16:42:14.232Z,5.40
2018-05-16T16:44:44.669Z,6.97
2018-05-16T16:47:15.016Z,5.90
2018-05-16T16:49:45.882Z,7.83
2018-05-16T16:52:16.658Z,9.23
2018-05-16T16:54:47.851Z,4.40
2018-05-16T16:57:18.063Z,9.63
2018-05-16T16:59:48.137Z,8.40
2018-05-16T17:02:18.964Z,9.90
2018-05-16T17:04:49.091Z,10.40
2018-05-16T17:07:20.020Z,8.27
2018-05-16T17:09:50.463Z,9.10
2018-05-16T17:12:21.185Z,6.57
2018-05-16T17:14:51.588Z,5.93
2018-05-16T17:17:22.008Z,5.77
2018-05-16T17:19:52.137Z,9.90
2018-05-16T17:22:22.293Z,6.60
2018-05-16T17:24:53.687Z,7.13
2018-05-16T17:27:23.817Z,11.13
2018-05-16T17:29:53.981Z,8.27
2018-05-16T17:32:24.338Z,8.97
2018-05-16T17:34:54.538Z,6.77
2018-05-16T17:37:24.697Z,7.90
2018-05-16T17:39:55.060Z,10.47
2018-05-16T17:42:25.363Z,13.33
2018-05-16T17:44:55.826Z,12.97
2018-05-16T17:47:26.471Z,13.50
2018-05-16T17:49:57.501Z,16.97
2018-05-16T17:52:27.632Z,13.83
2018-05-16T17:55:00.010Z,16.53
2018-05-16T17:57:31.340Z,18.20
2018-05-16T18:00:01.960Z,19.73
2018-05-16T18:02:32.578Z,18.37
2018-05-16T18:05:03.408Z,23.20
2018-05-16T18:07:34.737Z,19.40
2018-05-16T18:10:04.969Z,23.73
2018-05-16T18:12:35.061Z,21.67
2018-05-16T18:17:19.304Z,17.87
2018-05-16T18:19:50.548Z,17.80
2018-05-16T18:22:21.179Z,21.97
2018-05-16T18:24:54.650Z,26.13
2018-05-16T18:27:25.536Z,26.67
2018-05-16T18:29:56.415Z,22.30
2018-05-16T18:32:27.735Z,22.30
2018-05-16T18:34:59.462Z,20.33
2018-05-16T18:37:29.778Z,23.97
2018-05-16T18:40:00.421Z,22.77
2018-05-16T18:42:31.140Z,23.87
2018-05-16T18:45:01.227Z,24.63
2018-05-16T18:47:31.693Z,27.63
2018-05-16T18:50:02.212Z,22.07
2018-05-16T18:52:33.173Z,26.13
2018-05-16T18:55:03.300Z,24.17
2018-05-16T18:57:33.719Z,20.50
2018-05-16T19:00:03.996Z,21.70
2018-05-16T19:02:34.923Z,23.53
2018-05-16T19:05:05.518Z,28.77
2018-05-16T19:07:35.736Z,22.83
2018-05-16T19:10:07.093Z,26.30
2018-05-16T19:12:39.670Z,25.10
2018-05-16T19:15:10.932Z,23.80
2018-05-16T19:17:41.683Z,29.73
2018-05-16T19:20:12.194Z,22.57
2018-05-16T19:22:42.565Z,27.87
2018-05-16T19:25:13.006Z,22.10
2018-05-16T19:27:43.650Z,24.60
2018-05-16T19:30:13.824Z,29.40
2018-05-16T19:32:44.777Z,24.63
2018-05-16T19:35:15.401Z,27.77
2018-05-16T19:37:46.370Z,24.10
2018-05-16T19:40:17.540Z,21.93
2018-05-16T19:42:48.269Z,22.27
2018-05-16T19:45:18.406Z,21.83
2018-05-16T19:47:49.253Z,19.93
2018-05-16T19:50:19.910Z,27.73
2018-05-16T19:52:50.966Z,26.73
2018-05-16T19:55:21.314Z,20.80
2018-05-16T19:57:51.602Z,22.03
2018-05-16T20:00:22.213Z,20.87
2018-05-16T20:02:53.195Z,26.10
2018-05-16T20:05:23.911Z,25.63
2018-05-16T20:07:55.154Z,22.03
2018-05-16T20:10:25.975Z,27.73
2018-05-16T20:12:57.357Z,23.30
2018-05-16T20:15:28.212Z,24.17
2018-05-16T20:17:58.735Z,23.20
2018-05-16T20:20:29.282Z,27.17
2018-05-16T20:22:59.588Z,22.53
2018-05-16T20:25:29.851Z,24.93
2018-05-16T20:28:00.282Z,28.13
2018-05-16T20:30:30.657Z,19.93
2018-05-16T20:33:00.840Z,29.57
2018-05-16T20:35:31.361Z,22.97
2018-05-16T20:38:01.895Z,27.83
2018-05-16T20:40:32.158Z,25.37
2018-05-16T20:43:02.988Z,25.97
2018-05-16T20:45:33.286Z,29.10
2018-05-16T20:48:06.075Z,31.77
2018-05-16T20:50:38.082Z,27.40
2018-05-16T20:53:08.308Z,30.13
2018-05-16T20:55:38.987Z,29.20
2018-05-16T20:58:09.435Z,29.13
2018-05-16T21:00:39.584Z,26.77
2018-05-16T21:03:10.195Z,28.87
2018-05-16T21:05:42.087Z,21.17
2018-05-16T21:08:13.013Z,25.83
2018-05-16T21:10:43.475Z,25.97
2018-05-16T21:13:14.099Z,23.23
2018-05-16T21:15:44.207Z,24.03
2018-05-16T21:18:14.578Z,25.10
2018-05-16T21:20:45.077Z,27.73
2018-05-16T21:23:15.178Z,29.80
2018-05-16T21:25:45.540Z,26.17
2018-05-16T21:28:16.891Z,22.13
2018-05-16T21:30:47.150Z,30.40
2018-05-16T21:33:17.559Z,20.30
2018-05-16T21:35:47.989Z,28.20
2018-05-16T21:38:18.803Z,33.97
2018-05-16T21:40:49.277Z,26.90
2018-05-16T21:43:20.211Z,24.70
2018-05-16T21:45:50.297Z,22.00
2018-05-16T21:48:20.747Z,33.80
2018-05-16T21:50:50.925Z,30.23
2018-05-16T21:53:21.027Z,23.00
2018-05-16T21:55:51.383Z,23.27
2018-05-16T21:58:21.872Z,30.57
2018-05-16T22:00:53.251Z,25.80
2018-05-16T22:03:23.649Z,30.30
2018-05-16T22:05:55.427Z,31.37
2018-05-16T22:08:26.521Z,30.13
2018-05-16T22:10:56.984Z,34.83
2018-05-16T22:13:27.833Z,29.63
2018-05-16T22:15:58.320Z,26.97
2018-05-16T22:18:29.173Z,28.80
2018-05-16T22:21:00.092Z,30.30
2018-05-16T22:23:30.469Z,30.67
2018-05-16T22:26:00.784Z,28.30
2018-05-16T22:28:30.972Z,35.37
2018-05-16T22:31:06.337Z,29.27
2018-05-16T22:33:42.192Z,33.27
2018-05-16T22:36:17.867Z,32.73
2018-05-16T22:38:53.924Z,31.53
2018-05-16T22:41:29.292Z,36.03
2018-05-16T22:43:59.796Z,27.47
2018-05-16T22:46:30.187Z,30.83
2018-05-16T22:49:01.068Z,33.63
2018-05-16T22:51:31.123Z,28.13
2018-05-16T22:54:01.235Z,31.90
2018-05-16T22:56:32.046Z,32.70
2018-05-16T22:59:02.439Z,38.07
2018-05-16T23:01:32.544Z,26.63
2018-05-16T23:04:03.476Z,31.87
2018-05-16T23:06:34.280Z,32.23
2018-05-16T23:09:06.212Z,32.57
2018-05-16T23:11:36.286Z,25.80
2018-05-16T23:14:07.663Z,32.40
2018-05-16T23:16:37.812Z,34.50
2018-05-16T23:19:09.068Z,29.37
2018-05-16T23:21:39.695Z,33.23
2018-05-16T23:24:10.261Z,29.57
2018-05-16T23:26:41.731Z,35.27
2018-05-16T23:29:12.305Z,32.57
2018-05-16T23:31:42.582Z,32.23
2018-05-16T23:34:12.766Z,35.13
2018-05-16T23:36:43.431Z,34.07
2018-05-16T23:39:13.776Z,28.13
2018-05-16T23:41:43.839Z,34.80
2018-05-16T23:44:15.315Z,32.97
2018-05-16T23:46:46.385Z,26.93
2018-05-16T23:49:16.500Z,31.53
2018-05-16T23:51:46.543Z,32.00
2018-05-16T23:54:16.612Z,41.97
2018-05-16T23:56:47.964Z,33.93
2018-05-16T23:59:18.594Z,30.30
